createdAt,value
2023-04-22T00:00:11.150Z,933.18
2023-04-22T00:01:11.176Z,933.16
2023-04-22T00:02:11.213Z,933.17
2023-04-22T00:03:11.313Z,933.17
2023-04-22T00:04:11.346Z,933.18
2023-04-22T00:05:11.191Z,933.17
2023-04-22T00:06:11.101Z,933.17
2023-04-22T00:07:11.093Z,933.14
2023-04-22T00:08:11.146Z,933.15
2023-04-22T00:09:11.062Z,933.13
2023-04-22T00:10:11.384Z,933.15
2023-04-22T00:11:11.066Z,933.11
2023-04-22T00:12:11.124Z,933.10
2023-04-22T00:13:11.026Z,933.12
2023-04-22T00:14:11.009Z,933.15
2023-04-22T00:15:11.017Z,933.14
2023-04-22T00:16:11.078Z,933.14
2023-04-22T00:17:10.980Z,933.16
2023-04-22T00:18:10.970Z,933.17
2023-04-22T00:19:10.947Z,933.19
2023-04-22T00:20:10.996Z,933.13
2023-04-22T00:21:10.932Z,933.16
2023-04-22T00:22:10.956Z,933.11
2023-04-22T00:23:10.913Z,933.14
2023-04-22T00:24:10.926Z,933.14
2023-04-22T00:25:10.919Z,933.13
2023-04-22T00:26:10.903Z,933.11
2023-04-22T00:27:10.875Z,933.13
2023-04-22T00:28:10.878Z,933.10
2023-04-22T00:29:10.875Z,933.08
2023-04-22T00:30:10.852Z,933.07
2023-04-22T00:31:10.854Z,933.05
2023-04-22T00:32:10.827Z,933.08
2023-04-22T00:33:10.929Z,933.05
2023-04-22T00:34:10.790Z,933.05
2023-04-22T00:35:10.784Z,933.06
2023-04-22T00:36:10.790Z,933.11
2023-04-22T00:37:10.874Z,933.08
2023-04-22T00:38:10.750Z,933.06
2023-04-22T00:39:10.747Z,933.05
2023-04-22T00:40:10.735Z,933.07
2023-04-22T00:41:10.723Z,933.10
2023-04-22T00:42:11.359Z,933.08
2023-04-22T00:43:10.699Z,933.04
2023-04-22T00:44:10.701Z,933.03
2023-04-22T00:45:10.677Z,933.07
2023-04-22T00:46:10.672Z,933.07
2023-04-22T00:47:10.721Z,933.09
2023-04-22T00:48:10.713Z,933.10
2023-04-22T00:49:10.633Z,933.04
2023-04-22T00:50:10.650Z,933.04
2023-04-22T00:51:10.632Z,933.05
2023-04-22T00:52:10.621Z,933.06
2023-04-22T00:53:10.630Z,933.03
2023-04-22T00:54:10.608Z,933.07
2023-04-22T00:55:10.595Z,933.06
2023-04-22T00:56:10.568Z,933.07
2023-04-22T00:57:10.572Z,933.09
2023-04-22T00:58:10.563Z,933.11
2023-04-22T00:59:10.566Z,933.10
2023-04-22T01:00:10.517Z,933.08
2023-04-22T01:01:10.540Z,933.13
2023-04-22T01:02:10.622Z,933.11
2023-04-22T01:03:10.689Z,933.12
2023-04-22T01:04:10.749Z,933.13
2023-04-22T01:05:10.563Z,933.13
2023-04-22T01:06:10.470Z,933.11
2023-04-22T01:07:10.490Z,933.12
2023-04-22T01:08:10.444Z,933.19
2023-04-22T01:09:10.450Z,933.13
2023-04-22T01:10:10.420Z,933.15
2023-04-22T01:11:10.413Z,933.19
2023-04-22T01:12:11.349Z,933.21
2023-04-22T01:13:10.393Z,933.17
2023-04-22T01:14:10.402Z,933.22
2023-04-22T01:15:10.381Z,933.21
2023-04-22T01:16:10.414Z,933.20
2023-04-22T01:17:10.449Z,933.18
2023-04-22T01:18:10.365Z,933.20
2023-04-22T01:19:10.335Z,933.19
2023-04-22T01:20:10.339Z,933.22
2023-04-22T01:21:10.316Z,933.22
2023-04-22T01:22:10.296Z,933.23
2023-04-22T01:23:10.334Z,933.22
2023-04-22T01:24:10.284Z,933.22
2023-04-22T01:25:10.283Z,933.21
2023-04-22T01:26:10.256Z,933.24
2023-04-22T01:27:10.251Z,933.23
2023-04-22T01:28:10.265Z,933.20
2023-04-22T01:29:10.244Z,933.22
2023-04-22T01:30:10.243Z,933.26
2023-04-22T01:31:10.225Z,933.24
2023-04-22T01:32:10.291Z,933.20
2023-04-22T01:33:10.266Z,933.27
2023-04-22T01:34:10.182Z,933.23
2023-04-22T01:35:10.173Z,933.25
2023-04-22T01:36:12.773Z,933.28
2023-04-22T01:37:10.145Z,933.23
2023-04-22T01:38:10.146Z,933.21
2023-04-22T01:39:10.189Z,933.18
2023-04-22T01:40:10.122Z,933.20
2023-04-22T01:41:10.107Z,933.20
2023-04-22T01:42:10.091Z,933.21
2023-04-22T01:43:10.087Z,933.25
2023-04-22T01:44:10.069Z,933.19
2023-04-22T01:45:10.104Z,933.17
2023-04-22T01:46:10.155Z,933.19
2023-04-22T01:47:10.049Z,933.21
2023-04-22T01:48:10.086Z,933.21
2023-04-22T01:49:10.028Z,933.17
2023-04-22T01:50:10.013Z,933.19
2023-04-22T01:51:10.022Z,933.21
2023-04-22T01:52:09.990Z,933.20
2023-04-22T01:53:09.996Z,933.19
2023-04-22T01:54:09.964Z,933.19
2023-04-22T01:55:10.009Z,933.21
2023-04-22T01:56:09.949Z,933.22
2023-04-22T01:57:09.939Z,933.23
2023-04-22T01:58:09.957Z,933.25
2023-04-22T01:59:09.918Z,933.17
2023-04-22T02:00:09.937Z,933.19
2023-04-22T02:01:10.018Z,933.22
2023-04-22T02:02:10.025Z,933.21
2023-04-22T02:03:09.992Z,933.24
2023-04-22T02:04:09.868Z,933.22
2023-04-22T02:05:09.926Z,933.20
2023-04-22T02:06:09.861Z,933.22
2023-04-22T02:07:09.895Z,933.20
2023-04-22T02:08:09.825Z,933.25
2023-04-22T02:09:09.832Z,933.18
2023-04-22T02:10:09.812Z,933.25
2023-04-22T02:11:09.793Z,933.21
2023-04-22T02:12:09.777Z,933.26
2023-04-22T02:13:09.805Z,933.26
2023-04-22T02:14:09.755Z,933.23
2023-04-22T02:15:09.756Z,933.26
2023-04-22T02:16:09.812Z,933.27
2023-04-22T02:17:09.747Z,933.25
2023-04-22T02:18:09.757Z,933.26
2023-04-22T02:19:09.764Z,933.25
2023-04-22T02:20:09.758Z,933.24
2023-04-22T02:21:09.700Z,933.24
2023-04-22T02:22:09.679Z,933.29
2023-04-22T02:23:09.669Z,933.27
2023-04-22T02:24:09.663Z,933.32
2023-04-22T02:25:09.681Z,933.31
2023-04-22T02:26:09.634Z,933.33
2023-04-22T02:27:09.620Z,933.29
2023-04-22T02:28:09.616Z,933.29
2023-04-22T02:29:09.607Z,933.34
2023-04-22T02:30:09.613Z,933.29
2023-04-22T02:31:09.637Z,933.29
2023-04-22T02:32:09.567Z,933.27
2023-04-22T02:33:09.615Z,933.34
2023-04-22T02:34:09.572Z,933.31
2023-04-22T02:35:09.615Z,933.28
2023-04-22T02:36:09.555Z,933.31
2023-04-22T02:37:10.366Z,933.25
2023-04-22T02:38:09.510Z,933.31
2023-04-22T02:39:09.503Z,933.25
2023-04-22T02:40:09.597Z,933.26
2023-04-22T02:41:09.488Z,933.26
2023-04-22T02:42:09.486Z,933.22
2023-04-22T02:43:09.459Z,933.26
2023-04-22T02:44:09.522Z,933.24
2023-04-22T02:45:09.556Z,933.28
2023-04-22T02:46:09.501Z,933.33
2023-04-22T02:47:09.580Z,933.29
2023-04-22T02:48:09.517Z,933.30
2023-04-22T02:49:09.393Z,933.27
2023-04-22T02:50:09.435Z,933.27
2023-04-22T02:51:09.409Z,933.30
2023-04-22T02:52:09.426Z,933.29
2023-04-22T02:53:09.404Z,933.33
2023-04-22T02:54:09.355Z,933.30
2023-04-22T02:55:09.373Z,933.27
2023-04-22T02:56:09.326Z,933.28
2023-04-22T02:57:09.370Z,933.27
2023-04-22T02:58:09.322Z,933.29
2023-04-22T02:59:09.286Z,933.27
2023-04-22T03:00:09.301Z,933.24
2023-04-22T03:01:09.323Z,933.26
2023-04-22T03:02:09.368Z,933.27
2023-04-22T03:03:09.488Z,933.28
2023-04-22T03:04:09.333Z,933.21
2023-04-22T03:05:09.223Z,933.21
2023-04-22T03:06:09.273Z,933.25
2023-04-22T03:07:09.217Z,933.27
2023-04-22T03:08:09.223Z,933.25
2023-04-22T03:09:09.197Z,933.28
2023-04-22T03:10:09.202Z,933.25
2023-04-22T03:11:09.180Z,933.27
2023-04-22T03:12:09.161Z,933.26
2023-04-22T03:13:09.184Z,933.23
2023-04-22T03:14:09.185Z,933.20
2023-04-22T03:15:09.158Z,933.24
2023-04-22T03:16:09.166Z,933.24
2023-04-22T03:17:09.097Z,933.27
2023-04-22T03:18:09.219Z,933.27
2023-04-22T03:19:16.601Z,933.25
2023-04-22T03:20:09.088Z,933.25
2023-04-22T03:21:09.135Z,933.23
2023-04-22T03:22:09.118Z,933.19
2023-04-22T03:23:09.112Z,933.24
2023-04-22T03:24:09.036Z,933.21
2023-04-22T03:25:09.026Z,933.16
2023-04-22T03:26:09.011Z,933.19
2023-04-22T03:27:09.067Z,933.18
2023-04-22T03:28:08.991Z,933.20
2023-04-22T03:29:08.981Z,933.16
2023-04-22T03:30:08.971Z,933.19
2023-04-22T03:31:09.021Z,933.21
2023-04-22T03:32:09.475Z,933.18
2023-04-22T03:33:09.098Z,933.14
2023-04-22T03:34:08.925Z,933.14
2023-04-22T03:35:08.934Z,933.17
2023-04-22T03:36:08.923Z,933.21
2023-04-22T03:37:08.916Z,933.25
2023-04-22T03:38:08.915Z,933.20
2023-04-22T03:39:08.926Z,933.18
2023-04-22T03:40:08.881Z,933.16
2023-04-22T03:41:08.882Z,933.19
2023-04-22T03:42:08.878Z,933.16
2023-04-22T03:43:08.841Z,933.17
2023-04-22T03:44:08.846Z,933.16
2023-04-22T03:45:08.851Z,933.18
2023-04-22T03:46:08.985Z,933.19
2023-04-22T03:47:08.829Z,933.17
2023-04-22T03:48:09.035Z,933.17
2023-04-22T03:49:08.792Z,933.15
2023-04-22T03:50:08.791Z,933.18
2023-04-22T03:51:08.787Z,933.15
2023-04-22T03:52:08.793Z,933.15
2023-04-22T03:53:08.763Z,933.17
2023-04-22T03:54:08.788Z,933.19
2023-04-22T03:55:08.723Z,933.17
2023-04-22T03:56:08.807Z,933.19
2023-04-22T03:57:08.700Z,933.21
2023-04-22T03:58:08.767Z,933.22
2023-04-22T03:59:08.684Z,933.24
2023-04-22T04:00:08.686Z,933.21
2023-04-22T04:01:08.676Z,933.22
2023-04-22T04:02:08.876Z,933.21
2023-04-22T04:03:08.923Z,933.21
2023-04-22T04:04:08.795Z,933.21
2023-04-22T04:05:08.827Z,933.17
2023-04-22T04:06:08.598Z,933.21
2023-04-22T04:07:08.594Z,933.19
2023-04-22T04:08:08.578Z,933.19
2023-04-22T04:09:08.649Z,933.21
2023-04-22T04:10:08.598Z,933.24
2023-04-22T04:11:08.538Z,933.21
2023-04-22T04:12:08.563Z,933.24
2023-04-22T04:13:08.532Z,933.25
2023-04-22T04:14:08.518Z,933.30
2023-04-22T04:15:08.532Z,933.25
2023-04-22T04:16:08.523Z,933.27
2023-04-22T04:17:08.483Z,933.24
2023-04-22T04:18:08.684Z,933.23
2023-04-22T04:19:09.063Z,933.20
2023-04-22T04:20:08.458Z,933.20
2023-04-22T04:21:08.475Z,933.24
2023-04-22T04:22:08.515Z,933.12
2023-04-22T04:23:08.444Z,933.16
2023-04-22T04:24:08.429Z,933.13
2023-04-22T04:25:08.434Z,933.15
2023-04-22T04:26:08.457Z,933.16
2023-04-22T04:27:08.378Z,933.12
2023-04-22T04:28:08.434Z,933.12
2023-04-22T04:29:08.443Z,933.11
2023-04-22T04:30:08.351Z,933.13
2023-04-22T04:31:08.439Z,933.12
2023-04-22T04:32:08.383Z,933.16
2023-04-22T04:33:08.381Z,933.14
2023-04-22T04:34:08.334Z,933.20
2023-04-22T04:35:08.293Z,933.22
2023-04-22T04:36:08.284Z,933.19
2023-04-22T04:37:08.291Z,933.20
2023-04-22T04:38:08.273Z,933.21
2023-04-22T04:39:08.259Z,933.21
2023-04-22T04:40:08.247Z,933.17
2023-04-22T04:41:08.265Z,933.16
2023-04-22T04:42:08.341Z,933.18
2023-04-22T04:43:08.249Z,933.19
2023-04-22T04:44:08.211Z,933.15
2023-04-22T04:45:08.198Z,933.23
2023-04-22T04:46:08.251Z,933.21
2023-04-22T04:47:08.192Z,933.20
2023-04-22T04:48:08.252Z,933.17
2023-04-22T04:49:08.171Z,933.21
2023-04-22T04:50:08.140Z,933.22
2023-04-22T04:51:08.176Z,933.24
2023-04-22T04:52:08.115Z,933.22
2023-04-22T04:53:08.106Z,933.24
2023-04-22T04:54:08.104Z,933.27
2023-04-22T04:55:08.132Z,933.29
2023-04-22T04:56:08.099Z,933.32
2023-04-22T04:57:08.072Z,933.31
2023-04-22T04:58:08.114Z,933.32
2023-04-22T04:59:08.047Z,933.36
2023-04-22T05:00:08.054Z,933.33
2023-04-22T05:01:08.083Z,933.37
2023-04-22T05:02:08.343Z,933.39
2023-04-22T05:03:08.324Z,933.42
2023-04-22T05:04:08.286Z,933.45
2023-04-22T05:05:08.000Z,933.41
2023-04-22T05:06:08.017Z,933.40
2023-04-22T05:07:08.013Z,933.43
2023-04-22T05:08:08.028Z,933.39
2023-04-22T05:09:08.252Z,933.43
2023-04-22T05:10:08.017Z,933.41
2023-04-22T05:11:07.933Z,933.43
2023-04-22T05:12:07.991Z,933.38
2023-04-22T05:13:07.917Z,933.41
2023-04-22T05:14:07.924Z,933.44
2023-04-22T05:15:07.920Z,933.46
2023-04-22T05:16:07.988Z,933.47
2023-04-22T05:17:07.891Z,933.47
2023-04-22T05:18:07.875Z,933.51
2023-04-22T05:19:07.841Z,933.50
2023-04-22T05:20:07.868Z,933.45
2023-04-22T05:21:07.820Z,933.43
2023-04-22T05:22:07.854Z,933.47
2023-04-22T05:23:07.797Z,933.44
2023-04-22T05:24:07.793Z,933.47
2023-04-22T05:25:07.772Z,933.44
2023-04-22T05:26:07.779Z,933.46
2023-04-22T05:27:07.956Z,933.41
2023-04-22T05:28:07.766Z,933.44
2023-04-22T05:29:07.743Z,933.47
2023-04-22T05:30:07.773Z,933.47
2023-04-22T05:31:07.724Z,933.44
2023-04-22T05:32:07.742Z,933.45
2023-04-22T05:33:07.796Z,933.50
2023-04-22T05:34:07.727Z,933.47
2023-04-22T05:35:07.681Z,933.55
2023-04-22T05:36:07.721Z,933.53
2023-04-22T05:37:07.667Z,933.52
2023-04-22T05:38:07.671Z,933.52
2023-04-22T05:39:07.660Z,933.51
2023-04-22T05:40:07.635Z,933.52
2023-04-22T05:41:07.612Z,933.44
2023-04-22T05:42:08.410Z,933.46
2023-04-22T05:43:07.629Z,933.51
2023-04-22T05:44:07.585Z,933.44
2023-04-22T05:45:07.565Z,933.48
2023-04-22T05:46:07.748Z,933.50
2023-04-22T05:47:07.580Z,933.49
2023-04-22T05:48:07.577Z,933.53
2023-04-22T05:49:07.570Z,933.54
2023-04-22T05:50:07.530Z,933.58
2023-04-22T05:51:07.516Z,933.54
2023-04-22T05:52:07.566Z,933.56
2023-04-22T05:53:07.518Z,933.54
2023-04-22T05:54:07.476Z,933.52
2023-04-22T05:55:07.503Z,933.51
2023-04-22T05:56:07.452Z,933.54
2023-04-22T05:57:07.448Z,933.54
2023-04-22T05:58:07.448Z,933.57
2023-04-22T05:59:07.439Z,933.52
2023-04-22T06:00:07.472Z,933.50
2023-04-22T06:01:07.410Z,933.51
2023-04-22T06:02:07.557Z,933.56
2023-04-22T06:03:07.596Z,933.47
2023-04-22T06:04:07.679Z,933.49
2023-04-22T06:05:07.866Z,933.46
2023-04-22T06:06:07.368Z,933.48
2023-04-22T06:07:07.345Z,933.43
2023-04-22T06:08:07.327Z,933.49
2023-04-22T06:09:07.354Z,933.48
2023-04-22T06:10:07.320Z,933.50
2023-04-22T06:11:07.935Z,933.49
2023-04-22T06:12:07.290Z,933.53
2023-04-22T06:13:07.274Z,933.48
2023-04-22T06:14:07.294Z,933.50
2023-04-22T06:15:07.468Z,933.51
2023-04-22T06:17:07.225Z,933.47
2023-04-22T06:18:07.242Z,933.46
2023-04-22T06:19:07.207Z,933.47
2023-04-22T06:20:07.431Z,933.47
2023-04-22T06:21:07.224Z,933.49
2023-04-22T06:22:07.208Z,933.42
2023-04-22T06:23:07.179Z,933.43
2023-04-22T06:24:07.157Z,933.42
2023-04-22T06:25:07.162Z,933.47
2023-04-22T06:26:07.150Z,933.45
2023-04-22T06:27:07.118Z,933.37
2023-04-22T06:28:07.114Z,933.39
2023-04-22T06:29:07.103Z,933.42
2023-04-22T06:30:07.128Z,933.44
2023-04-22T06:31:07.156Z,933.45
2023-04-22T06:32:07.068Z,933.48
2023-04-22T06:33:07.118Z,933.47
2023-04-22T06:34:07.124Z,933.48
2023-04-22T06:35:07.050Z,933.49
2023-04-22T06:36:07.058Z,933.48
2023-04-22T06:37:07.012Z,933.49
2023-04-22T06:38:07.001Z,933.49
2023-04-22T06:39:07.053Z,933.49
2023-04-22T06:40:07.007Z,933.48
2023-04-22T06:41:06.973Z,933.50
2023-04-22T06:42:07.946Z,933.52
2023-04-22T06:43:06.957Z,933.47
2023-04-22T06:44:06.965Z,933.47
2023-04-22T06:45:07.043Z,933.47
2023-04-22T06:46:06.941Z,933.39
2023-04-22T06:47:06.910Z,933.43
2023-04-22T06:48:06.902Z,933.47
2023-04-22T06:49:06.950Z,933.47
2023-04-22T06:50:06.898Z,933.48
2023-04-22T06:51:06.902Z,933.52
2023-04-22T06:52:06.872Z,933.53
2023-04-22T06:53:06.839Z,933.52
2023-04-22T06:54:06.836Z,933.53
2023-04-22T06:55:06.862Z,933.48
2023-04-22T06:56:06.814Z,933.43
2023-04-22T06:57:06.814Z,933.42
2023-04-22T06:58:06.862Z,933.38
2023-04-22T06:59:06.780Z,933.37
2023-04-22T07:00:06.763Z,933.41
2023-04-22T07:01:06.781Z,933.34
2023-04-22T07:02:06.898Z,933.39
2023-04-22T07:03:06.830Z,933.40
2023-04-22T07:04:06.753Z,933.34
2023-04-22T07:05:06.755Z,933.35
2023-04-22T07:06:06.816Z,933.40
2023-04-22T07:07:06.719Z,933.39
2023-04-22T07:08:06.690Z,933.44
2023-04-22T07:09:06.683Z,933.41
2023-04-22T07:10:06.660Z,933.43
2023-04-22T07:11:06.658Z,933.44
2023-04-22T07:12:06.668Z,933.44
2023-04-22T07:13:06.644Z,933.39
2023-04-22T07:14:06.615Z,933.35
2023-04-22T07:15:06.620Z,933.35
2023-04-22T07:16:06.606Z,933.31
2023-04-22T07:17:06.615Z,933.28
2023-04-22T07:18:06.574Z,933.30
2023-04-22T07:19:06.589Z,933.28
2023-04-22T07:20:06.580Z,933.27
2023-04-22T07:21:07.012Z,933.25
2023-04-22T07:22:06.564Z,933.30
2023-04-22T07:23:06.533Z,933.27
2023-04-22T07:24:06.514Z,933.23
2023-04-22T07:25:06.510Z,933.22
2023-04-22T07:26:06.509Z,933.21
2023-04-22T07:27:07.449Z,933.17
2023-04-22T07:28:06.498Z,933.16
2023-04-22T07:29:06.466Z,933.17
2023-04-22T07:30:06.444Z,933.21
2023-04-22T07:31:06.453Z,933.20
2023-04-22T07:32:06.512Z,933.18
2023-04-22T07:33:06.486Z,933.19
2023-04-22T07:34:06.407Z,933.17
2023-04-22T07:35:06.404Z,933.15
2023-04-22T07:36:06.425Z,933.13
2023-04-22T07:37:06.398Z,933.13
2023-04-22T07:38:07.381Z,933.11
2023-04-22T07:39:06.368Z,933.10
2023-04-22T07:40:06.355Z,933.09
2023-04-22T07:41:06.344Z,933.10
2023-04-22T07:42:06.350Z,933.06
2023-04-22T07:43:06.318Z,933.09
2023-04-22T07:44:06.319Z,933.10
2023-04-22T07:45:06.339Z,933.12
2023-04-22T07:46:07.030Z,933.06
2023-04-22T07:47:06.274Z,933.12
2023-04-22T07:48:06.307Z,933.09
2023-04-22T07:49:06.290Z,933.13
2023-04-22T07:50:06.259Z,933.06
2023-04-22T07:51:06.231Z,933.07
2023-04-22T07:52:06.224Z,933.00
2023-04-22T07:53:06.274Z,933.07
2023-04-22T07:54:06.236Z,933.02
2023-04-22T07:55:06.522Z,933.04
2023-04-22T07:56:06.201Z,933.05
2023-04-22T07:57:06.186Z,933.01
2023-04-22T07:58:06.185Z,933.03
2023-04-22T07:59:06.151Z,933.05
2023-04-22T08:00:06.142Z,933.03
2023-04-22T08:01:06.205Z,933.04
2023-04-22T08:02:06.263Z,933.01
2023-04-22T08:03:06.486Z,932.98
2023-04-22T08:04:06.481Z,932.97
2023-04-22T08:05:06.118Z,932.91
2023-04-22T08:06:06.114Z,932.90
2023-04-22T08:07:17.084Z,932.91
2023-04-22T08:08:07.070Z,932.91
2023-04-22T08:09:06.084Z,932.91
2023-04-22T08:10:06.052Z,932.95
2023-04-22T08:11:06.069Z,932.93
2023-04-22T08:12:06.022Z,932.93
2023-04-22T08:13:06.018Z,932.92
2023-04-22T08:14:06.031Z,932.94
2023-04-22T08:15:05.990Z,932.95
2023-04-22T08:16:06.069Z,932.92
2023-04-22T08:17:05.975Z,932.85
2023-04-22T08:18:06.050Z,932.88
2023-04-22T08:19:05.969Z,932.90
2023-04-22T08:20:13.769Z,932.86
2023-04-22T08:21:05.988Z,932.84
2023-04-22T08:22:05.975Z,932.87
2023-04-22T08:23:05.908Z,932.87
2023-04-22T08:24:05.897Z,932.85
2023-04-22T08:25:05.895Z,932.87
2023-04-22T08:26:05.895Z,932.85
2023-04-22T08:27:05.875Z,932.87
2023-04-22T08:28:05.915Z,932.88
2023-04-22T08:29:05.919Z,932.87
2023-04-22T08:30:05.859Z,932.82
2023-04-22T08:31:05.866Z,932.79
2023-04-22T08:32:05.880Z,932.78
2023-04-22T08:33:05.827Z,932.80
2023-04-22T08:34:05.857Z,932.76
2023-04-22T08:35:05.865Z,932.75
2023-04-22T08:36:05.795Z,932.76
2023-04-22T08:37:05.779Z,932.67
2023-04-22T08:38:05.770Z,932.71
2023-04-22T08:39:05.780Z,932.68
2023-04-22T08:40:05.738Z,932.72
2023-04-22T08:41:05.748Z,932.72
2023-04-22T08:42:05.813Z,932.71
2023-04-22T08:43:05.725Z,932.69
2023-04-22T08:44:05.720Z,932.71
2023-04-22T08:45:05.717Z,932.67
2023-04-22T08:46:05.845Z,932.66
2023-04-22T08:47:05.914Z,932.68
2023-04-22T08:48:05.749Z,932.67
2023-04-22T08:49:05.702Z,932.66
2023-04-22T08:50:05.652Z,932.68
2023-04-22T08:51:05.638Z,932.66
2023-04-22T08:52:05.624Z,932.67
2023-04-22T08:53:05.670Z,932.65
2023-04-22T08:54:05.606Z,932.63
2023-04-22T08:55:05.604Z,932.60
2023-04-22T08:56:05.593Z,932.60
2023-04-22T08:57:05.604Z,932.56
2023-04-22T08:58:05.584Z,932.49
2023-04-22T08:59:05.575Z,932.53
2023-04-22T09:00:05.587Z,932.55
2023-04-22T09:01:05.558Z,932.51
2023-04-22T09:02:06.759Z,932.55
2023-04-22T09:03:05.627Z,932.54
2023-04-22T09:04:05.633Z,932.50
2023-04-22T09:05:05.506Z,932.49
2023-04-22T09:06:05.489Z,932.51
2023-04-22T09:07:05.483Z,932.50
2023-04-22T09:08:05.494Z,932.49
2023-04-22T09:09:05.494Z,932.48
2023-04-22T09:10:06.032Z,932.47
2023-04-22T09:11:05.496Z,932.43
2023-04-22T09:12:05.457Z,932.44
2023-04-22T09:13:05.435Z,932.44
2023-04-22T09:14:05.437Z,932.34
2023-04-22T09:15:05.476Z,932.32
2023-04-22T09:16:05.437Z,932.35
2023-04-22T09:17:05.456Z,932.33
2023-04-22T09:18:05.388Z,932.37
2023-04-22T09:19:05.367Z,932.33
2023-04-22T09:20:05.364Z,932.36
2023-04-22T09:21:05.365Z,932.30
2023-04-22T09:22:05.335Z,932.30
2023-04-22T09:23:05.380Z,932.30
2023-04-22T09:24:05.356Z,932.26
2023-04-22T09:25:05.307Z,932.26
2023-04-22T09:26:05.304Z,932.24
2023-04-22T09:27:05.299Z,932.25
2023-04-22T09:28:05.281Z,932.29
2023-04-22T09:29:05.314Z,932.37
2023-04-22T09:30:05.287Z,932.32
2023-04-22T09:31:05.291Z,932.29
2023-04-22T09:32:05.297Z,932.29
2023-04-22T09:33:05.314Z,932.24
2023-04-22T09:34:05.219Z,932.28
2023-04-22T09:35:05.247Z,932.24
2023-04-22T09:36:05.201Z,932.28
2023-04-22T09:37:05.227Z,932.28
2023-04-22T09:38:05.179Z,932.26
2023-04-22T09:39:05.222Z,932.25
2023-04-22T09:40:05.161Z,932.25
2023-04-22T09:41:05.155Z,932.21
2023-04-22T09:42:05.147Z,932.24
2023-04-22T09:43:05.176Z,932.27
2023-04-22T09:44:05.130Z,932.21
2023-04-22T09:45:05.150Z,932.18
2023-04-22T09:46:05.132Z,932.19
2023-04-22T09:47:05.104Z,932.18
2023-04-22T09:48:05.094Z,932.18
2023-04-22T09:49:05.079Z,932.12
2023-04-22T09:50:05.093Z,932.11
2023-04-22T09:51:05.058Z,932.15
2023-04-22T09:52:05.044Z,932.08
2023-04-22T09:53:05.047Z,932.05
2023-04-22T09:54:05.026Z,932.05
2023-04-22T09:55:05.097Z,932.04
2023-04-22T09:56:05.055Z,932.04
2023-04-22T09:57:05.745Z,932.03
2023-04-22T09:58:05.011Z,932.04
2023-04-22T09:59:04.984Z,932.01
2023-04-22T10:00:04.979Z,931.98
2023-04-22T10:01:05.043Z,931.99
2023-04-22T10:02:04.999Z,932.00
2023-04-22T10:03:07.933Z,932.00
2023-04-22T10:04:04.989Z,931.97
2023-04-22T10:05:04.927Z,931.97
2023-04-22T10:06:04.907Z,931.97
2023-04-22T10:07:04.933Z,931.96
2023-04-22T10:08:04.965Z,931.95
2023-04-22T10:09:05.447Z,931.98
2023-04-22T10:10:04.907Z,931.91
2023-04-22T10:11:04.868Z,931.87
2023-04-22T10:12:05.112Z,931.84
2023-04-22T10:13:04.848Z,931.84
2023-04-22T10:14:04.854Z,931.79
2023-04-22T10:15:04.832Z,931.75
2023-04-22T10:16:04.844Z,931.76
2023-04-22T10:17:04.895Z,931.68
2023-04-22T10:18:05.032Z,931.67
2023-04-22T10:19:04.811Z,931.75
2023-04-22T10:20:05.592Z,931.75
2023-04-22T10:21:04.798Z,931.76
2023-04-22T10:22:04.916Z,931.79
2023-04-22T10:23:04.787Z,931.79
2023-04-22T10:24:04.777Z,931.76
2023-04-22T10:25:04.759Z,931.76
2023-04-22T10:26:04.740Z,931.77
2023-04-22T10:27:04.760Z,931.75
2023-04-22T10:28:04.787Z,931.76
2023-04-22T10:29:04.710Z,931.76
2023-04-22T10:30:04.875Z,931.80
2023-04-22T10:31:04.697Z,931.78
2023-04-22T10:32:04.661Z,931.78
2023-04-22T10:33:04.680Z,931.72
2023-04-22T10:34:04.736Z,931.74
2023-04-22T10:35:04.686Z,931.70
2023-04-22T10:36:04.634Z,931.72
2023-04-22T10:37:04.621Z,931.72
2023-04-22T10:38:04.621Z,931.72
2023-04-22T10:39:04.655Z,931.66
2023-04-22T10:40:04.628Z,931.64
2023-04-22T10:41:04.587Z,931.60
2023-04-22T10:42:04.586Z,931.69
2023-04-22T10:43:04.718Z,931.72
2023-04-22T10:44:04.554Z,931.72
2023-04-22T10:45:04.564Z,931.64
2023-04-22T10:46:04.580Z,931.62
2023-04-22T10:47:04.559Z,931.62
2023-04-22T10:48:04.565Z,931.58
2023-04-22T10:49:06.608Z,931.62
2023-04-22T10:50:04.512Z,931.59
2023-04-22T10:51:04.495Z,931.58
2023-04-22T10:52:04.501Z,931.54
2023-04-22T10:53:04.519Z,931.61
2023-04-22T10:54:04.488Z,931.61
2023-04-22T10:55:04.516Z,931.55
2023-04-22T10:56:04.447Z,931.52
2023-04-22T10:57:04.504Z,931.48
2023-04-22T10:58:04.448Z,931.53
2023-04-22T10:59:04.429Z,931.58
2023-04-22T11:00:04.435Z,931.63
2023-04-22T11:01:04.421Z,931.58
2023-04-22T11:02:05.146Z,931.55
2023-04-22T11:03:04.516Z,931.70
2023-04-22T11:04:04.456Z,931.71
2023-04-22T11:05:04.366Z,931.68
2023-04-22T11:06:04.392Z,931.67
2023-04-22T11:07:04.356Z,931.62
2023-04-22T11:08:04.363Z,931.62
2023-04-22T11:09:05.106Z,931.68
2023-04-22T11:10:04.332Z,931.69
2023-04-22T11:11:04.345Z,931.71
2023-04-22T11:12:04.312Z,931.63
2023-04-22T11:13:04.281Z,931.68
2023-04-22T11:14:04.289Z,931.67
2023-04-22T11:15:04.274Z,931.57
2023-04-22T11:16:04.310Z,931.53
2023-04-22T11:17:04.271Z,931.59
2023-04-22T11:18:04.251Z,931.53
2023-04-22T11:19:04.254Z,931.50
2023-04-22T11:20:04.215Z,931.55
2023-04-22T11:21:04.228Z,931.57
2023-04-22T11:22:04.482Z,931.53
2023-04-22T11:23:04.223Z,931.46
2023-04-22T11:24:04.195Z,931.49
2023-04-22T11:25:05.103Z,931.47
2023-04-22T11:26:04.180Z,931.45
2023-04-22T11:27:04.169Z,931.44
2023-04-22T11:28:04.145Z,931.47
2023-04-22T11:29:04.165Z,931.44
2023-04-22T11:30:04.171Z,931.43
2023-04-22T11:31:04.127Z,931.41
2023-04-22T11:32:04.376Z,931.44
2023-04-22T11:33:04.120Z,931.47
2023-04-22T11:34:04.149Z,931.43
2023-04-22T11:35:04.095Z,931.43
2023-04-22T11:36:04.106Z,931.39
2023-04-22T11:37:04.087Z,931.34
2023-04-22T11:38:04.067Z,931.29
2023-04-22T11:39:04.074Z,931.29
2023-04-22T11:41:04.051Z,931.36
2023-04-22T11:42:04.620Z,931.35
2023-04-22T11:43:04.009Z,931.36
2023-04-22T11:44:04.033Z,931.38
2023-04-22T11:45:04.017Z,931.40
2023-04-22T11:46:04.053Z,931.40
2023-04-22T11:47:04.010Z,931.45
2023-04-22T11:48:04.048Z,931.36
2023-04-22T11:49:03.958Z,931.37
2023-04-22T11:50:03.947Z,931.31
2023-04-22T11:51:04.610Z,931.31
2023-04-22T11:52:03.937Z,931.32
2023-04-22T11:53:03.921Z,931.32
2023-04-22T11:54:03.948Z,931.27
2023-04-22T11:55:03.882Z,931.31
2023-04-22T11:56:03.922Z,931.31
2023-04-22T11:57:03.947Z,931.30
2023-04-22T11:58:03.863Z,931.28
2023-04-22T11:59:03.875Z,931.31
2023-04-22T12:00:03.854Z,931.27
2023-04-22T12:01:03.829Z,931.29
2023-04-22T12:02:03.920Z,931.34
2023-04-22T12:03:04.058Z,931.36
2023-04-22T12:04:04.150Z,931.35
2023-04-22T12:05:03.845Z,931.41
2023-04-22T12:06:03.814Z,931.35
2023-04-22T12:07:03.778Z,931.34
2023-04-22T12:08:03.771Z,931.31
2023-04-22T12:09:03.790Z,931.41
2023-04-22T12:10:03.831Z,931.38
2023-04-22T12:11:03.741Z,931.40
2023-04-22T12:12:04.172Z,931.40
2023-04-22T12:13:03.715Z,931.36
2023-04-22T12:14:03.715Z,931.36
2023-04-22T12:15:03.725Z,931.34
2023-04-22T12:16:03.697Z,931.30
2023-04-22T12:17:03.704Z,931.37
2023-04-22T12:18:03.705Z,931.35
2023-04-22T12:19:03.702Z,931.27
2023-04-22T12:20:03.656Z,931.33
2023-04-22T12:21:03.648Z,931.27
2023-04-22T12:22:03.635Z,931.28
2023-04-22T12:23:03.628Z,931.29
2023-04-22T12:24:03.617Z,931.28
2023-04-22T12:25:03.630Z,931.23
2023-04-22T12:26:03.628Z,931.26
2023-04-22T12:27:03.672Z,931.17
2023-04-22T12:28:03.587Z,931.28
2023-04-22T12:29:03.588Z,931.27
2023-04-22T12:30:03.569Z,931.25